createdAt,value
2023-03-06T00:01:55.553Z,93852.34
2023-03-06T00:04:59.256Z,93847.84
2023-03-06T00:08:03.381Z,93851.50
2023-03-06T00:11:06.991Z,93850.66
2023-03-06T00:14:10.925Z,93847.53
2023-03-06T00:17:14.563Z,93846.47
2023-03-06T00:20:18.701Z,93847.78
2023-03-06T00:23:22.278Z,93851.38
2023-03-06T00:26:26.253Z,93829.94
2023-03-06T00:29:29.982Z,93833.63
2023-03-06T00:32:34.148Z,93838.34
2023-03-06T00:35:40.578Z,93834.16
2023-03-06T00:38:43.890Z,93827.38
2023-03-06T00:41:47.500Z,93837.06
2023-03-06T00:44:51.434Z,93838.03
2023-03-06T00:47:55.008Z,93829.78
2023-03-06T00:50:58.944Z,93833.78
2023-03-06T00:54:02.583Z,93836.72
2023-03-06T00:57:06.339Z,93837.34
2023-03-06T01:00:11.697Z,93826.44
2023-03-06T01:03:15.665Z,93829.97
2023-03-06T01:06:18.567Z,93830.72
2023-03-06T01:09:22.724Z,93828.53
2023-03-06T01:12:29.482Z,93826.38
2023-03-06T01:15:33.409Z,93818.78
2023-03-06T01:18:36.959Z,93823.91
2023-03-06T01:21:40.360Z,93809.78
2023-03-06T01:24:43.877Z,93806.16
2023-03-06T01:27:47.552Z,93800.72
2023-03-06T01:30:51.168Z,93804.34
2023-03-06T01:33:55.228Z,93804.34
2023-03-06T01:36:59.278Z,93790.16
2023-03-06T01:40:03.526Z,93788.94
2023-03-06T01:43:13.148Z,93788.47
2023-03-06T01:46:44.881Z,93780.34
2023-03-06T01:49:49.233Z,93783.00
2023-03-06T01:52:57.487Z,93777.50
2023-03-06T01:56:01.309Z,93769.69
2023-03-06T01:59:05.862Z,93757.94
2023-03-06T02:02:12.095Z,93756.56
2023-03-06T02:05:15.015Z,93747.84
2023-03-06T02:08:22.318Z,93742.09
2023-03-06T02:11:26.301Z,93741.56
2023-03-06T02:14:30.736Z,93741.63
2023-03-06T02:17:35.896Z,93732.81
2023-03-06T02:20:46.662Z,93721.72
2023-03-06T02:24:06.154Z,93722.44
2023-03-06T02:27:13.126Z,93715.97
2023-03-06T02:30:18.449Z,93717.91
2023-03-06T02:33:27.532Z,93707.09
2023-03-06T02:36:38.440Z,93710.25
2023-03-06T02:39:47.575Z,93706.44
2023-03-06T02:42:57.196Z,93692.25
2023-03-06T02:46:00.989Z,93692.03
2023-03-06T02:49:05.016Z,93673.66
2023-03-06T02:52:09.932Z,93663.38
2023-03-06T02:55:15.622Z,93651.63
2023-03-06T02:58:20.567Z,93651.50
2023-03-06T03:01:25.047Z,93647.84
2023-03-06T03:04:28.869Z,93641.16
2023-03-06T03:07:33.329Z,93634.19
2023-03-06T03:10:37.466Z,93626.22
2023-03-06T03:13:42.579Z,93625.75
2023-03-06T03:16:51.683Z,93605.69
2023-03-06T03:19:55.403Z,93596.75
2023-03-06T03:23:23.887Z,93593.44
2023-03-06T03:26:27.412Z,93591.66
2023-03-06T03:29:36.343Z,93591.66
2023-03-06T03:32:39.787Z,93590.47
2023-03-06T03:35:42.757Z,93573.16
2023-03-06T03:38:46.509Z,93576.06
2023-03-06T03:41:50.176Z,93574.16
2023-03-06T03:44:55.412Z,93563.63
2023-03-06T03:47:58.439Z,93562.03
2023-03-06T03:51:10.176Z,93565.59
2023-03-06T03:54:18.602Z,93553.78
2023-03-06T03:57:24.594Z,93537.97
2023-03-06T04:00:29.482Z,93532.81
2023-03-06T04:03:43.192Z,93526.41
2023-03-06T04:06:48.472Z,93513.22
2023-03-06T04:09:53.939Z,93510.94
2023-03-06T04:12:57.678Z,93511.78
2023-03-06T04:16:03.311Z,93511.06
2023-03-06T04:19:09.206Z,93509.41
2023-03-06T04:22:13.584Z,93507.19
2023-03-06T04:25:16.700Z,93498.31
2023-03-06T04:28:21.273Z,93501.84
2023-03-06T04:31:25.337Z,93484.91
2023-03-06T04:34:29.304Z,93487.00
2023-03-06T04:37:33.123Z,93477.59
2023-03-06T04:40:37.620Z,93479.31
2023-03-06T04:43:40.626Z,93478.84
2023-03-06T04:46:43.553Z,93469.59
2023-03-06T04:49:47.454Z,93455.03
2023-03-06T04:52:52.570Z,93458.91
2023-03-06T04:55:56.181Z,93448.22
2023-03-06T04:58:59.462Z,93447.84
2023-03-06T05:02:04.692Z,93442.53
2023-03-06T05:05:07.895Z,93440.06
2023-03-06T05:08:15.851Z,93424.22
2023-03-06T05:11:20.154Z,93424.06
2023-03-06T05:14:23.726Z,93415.22
2023-03-06T05:17:26.934Z,93407.97
2023-03-06T05:20:29.835Z,93409.13
2023-03-06T05:23:35.311Z,93400.03
2023-03-06T05:26:38.307Z,93396.69
2023-03-06T05:29:41.567Z,93388.16
2023-03-06T05:32:44.696Z,93384.88
2023-03-06T05:35:49.678Z,93381.53
2023-03-06T05:38:53.395Z,93370.06
2023-03-06T05:41:57.589Z,93365.69
2023-03-06T05:45:02.703Z,93365.00
2023-03-06T05:48:07.934Z,93370.34
2023-03-06T05:51:12.496Z,93364.16
2023-03-06T05:54:16.525Z,93357.91
2023-03-06T05:57:21.662Z,93347.59
2023-03-06T06:00:25.897Z,93343.97
2023-03-06T06:03:29.659Z,93333.09
2023-03-06T06:06:32.646Z,93325.09
2023-03-06T06:09:36.297Z,93326.69
2023-03-06T06:12:39.861Z,93323.16
2023-03-06T06:15:43.572Z,93325.00
2023-03-06T06:18:47.902Z,93324.69
2023-03-06T06:21:54.835Z,93316.19
2023-03-06T06:24:59.025Z,93314.84
2023-03-06T06:28:02.693Z,93312.00
2023-03-06T06:31:13.350Z,93319.94
2023-03-06T06:34:16.456Z,93309.38
2023-03-06T06:37:20.541Z,93305.75
2023-03-06T06:40:24.911Z,93309.44
2023-03-06T06:43:29.549Z,93306.31
2023-03-06T06:47:19.204Z,93293.50
2023-03-06T06:49:57.185Z,93301.34
2023-03-06T06:53:00.507Z,93300.31
2023-03-06T06:56:03.709Z,93291.13
2023-03-06T06:59:16.619Z,93288.09
2023-03-06T07:02:21.727Z,93276.28
2023-03-06T07:05:25.465Z,93267.25
2023-03-06T07:08:29.203Z,93274.63
2023-03-06T07:11:32.821Z,93273.50
2023-03-06T07:18:03.885Z,93265.00
2023-03-06T07:21:07.668Z,93260.00
2023-03-06T07:24:11.252Z,93258.66
2023-03-06T07:27:14.578Z,93249.22
2023-03-06T07:30:18.147Z,93249.47
2023-03-06T07:33:22.297Z,93236.81
2023-03-06T07:36:26.113Z,93231.69
2023-03-06T07:39:30.930Z,93227.69
2023-03-06T07:42:34.589Z,93227.38
2023-03-06T07:45:39.388Z,93221.50
2023-03-06T07:48:43.714Z,93217.69
2023-03-06T07:51:46.830Z,93216.31
2023-03-06T07:54:50.588Z,93209.34
2023-03-06T07:57:54.282Z,93209.91
2023-03-06T08:00:57.516Z,93207.81
2023-03-06T08:04:02.386Z,93204.81
2023-03-06T08:07:06.257Z,93191.75
2023-03-06T08:10:09.755Z,93187.41
2023-03-06T08:13:13.240Z,93187.03
2023-03-06T08:16:18.495Z,93174.22
2023-03-06T08:19:21.749Z,93178.16
2023-03-06T08:22:25.664Z,93174.78
2023-03-06T08:25:28.599Z,93178.69
2023-03-06T08:28:31.997Z,93167.53
2023-03-06T08:31:38.162Z,93164.69
2023-03-06T08:34:43.548Z,93158.06
2023-03-06T08:37:47.189Z,93156.94
2023-03-06T08:40:51.152Z,93142.75
2023-03-06T08:43:54.750Z,93138.31
2023-03-06T08:46:58.797Z,93140.34
2023-03-06T08:50:02.463Z,93129.81
2023-03-06T08:53:06.387Z,93129.88
2023-03-06T08:56:17.222Z,93129.44
2023-03-06T08:59:20.867Z,93130.38
2023-03-06T09:02:23.694Z,93127.03
2023-03-06T09:05:27.826Z,93121.03
2023-03-06T09:08:31.438Z,93116.66
2023-03-06T09:11:34.874Z,93111.53
2023-03-06T09:14:37.721Z,93099.38
2023-03-06T09:17:41.741Z,93104.81
2023-03-06T09:20:45.304Z,93096.22
2023-03-06T09:23:49.464Z,93106.31
2023-03-06T09:26:52.321Z,93098.78
2023-03-06T09:29:57.357Z,93102.13
2023-03-06T09:33:00.226Z,93101.06
2023-03-06T09:36:05.385Z,93096.81
2023-03-06T09:39:09.678Z,93091.47
2023-03-06T09:42:19.611Z,93087.47
2023-03-06T09:45:23.494Z,93083.44
2023-03-06T09:48:50.938Z,93085.34
2023-03-06T09:52:21.626Z,93078.50
2023-03-06T09:55:32.578Z,93072.50
2023-03-06T09:58:52.399Z,93058.06
2023-03-06T10:02:04.049Z,93054.78
2023-03-06T10:05:14.428Z,93047.91
2023-03-06T10:08:31.884Z,93047.22
2023-03-06T10:11:40.035Z,93048.53
2023-03-06T10:15:09.969Z,93040.59
2023-03-06T10:18:14.032Z,93043.81
2023-03-06T10:21:41.944Z,93029.81
2023-03-06T10:25:02.649Z,93024.34
2023-03-06T10:28:21.830Z,93025.41
2023-03-06T10:31:29.367Z,93018.47
2023-03-06T10:34:39.141Z,93010.53
2023-03-06T10:37:42.092Z,93018.94
2023-03-06T10:41:13.237Z,93026.13
2023-03-06T10:44:16.282Z,93008.66
2023-03-06T10:47:31.998Z,93022.22
2023-03-06T10:50:35.034Z,93016.16
2023-03-06T10:53:53.233Z,93012.44
2023-03-06T10:56:56.614Z,93014.31
2023-03-06T11:00:24.797Z,93013.66
2023-03-06T11:03:29.101Z,93021.25
2023-03-06T11:06:38.094Z,93017.13
2023-03-06T11:09:57.911Z,93023.22
2023-03-06T11:16:35.131Z,93020.53
2023-03-06T11:19:39.270Z,93016.31
2023-03-06T11:22:49.067Z,93011.88
2023-03-06T11:26:04.888Z,93010.72
2023-03-06T11:29:12.465Z,93009.28
2023-03-06T11:32:33.966Z,93014.66
2023-03-06T11:35:51.341Z,93009.78
2023-03-06T11:38:55.906Z,93004.59
2023-03-06T11:42:23.863Z,93001.03
2023-03-06T11:45:45.649Z,92998.34
2023-03-06T11:49:29.767Z,92989.31
2023-03-06T11:56:34.819Z,92992.38
2023-03-06T12:00:12.426Z,92991.31
2023-03-06T12:03:55.481Z,92988.38
2023-03-06T12:07:29.691Z,92973.56
2023-03-06T12:10:49.014Z,92969.16
2023-03-06T12:14:20.648Z,92960.44
2023-03-06T12:17:44.293Z,92960.19
2023-03-06T12:21:03.755Z,92964.31
2023-03-06T12:24:44.802Z,92945.38
2023-03-06T12:28:08.937Z,92947.19
2023-03-06T12:31:24.676Z,92939.59
2023-03-06T12:34:34.844Z,92942.13
2023-03-06T12:38:07.258Z,92935.00
2023-03-06T12:41:20.792Z,92930.53
2023-03-06T12:44:32.166Z,92916.84
2023-03-06T12:47:44.320Z,92920.25
2023-03-06T12:50:48.408Z,92915.84
2023-03-06T12:53:52.479Z,92908.13
2023-03-06T12:56:59.088Z,92906.00
2023-03-06T13:00:02.423Z,92903.63
2023-03-06T13:03:27.988Z,92905.53
2023-03-06T13:06:54.768Z,92911.44
2023-03-06T13:10:26.616Z,92913.22
2023-03-06T13:13:34.749Z,92909.19
2023-03-06T13:16:38.809Z,92904.41
2023-03-06T13:19:42.453Z,92902.00
2023-03-06T13:22:47.856Z,92915.09
2023-03-06T13:25:51.429Z,92906.75
2023-03-06T13:28:58.864Z,92908.78
2023-03-06T13:32:01.837Z,92903.41
2023-03-06T13:35:32.894Z,92913.50
2023-03-06T13:38:41.897Z,92907.28
2023-03-06T13:41:56.928Z,92907.03
2023-03-06T13:45:39.277Z,92898.47
2023-03-06T13:48:46.051Z,92901.06
2023-03-06T13:51:54.867Z,92890.97
2023-03-06T13:55:08.223Z,92890.31
2023-03-06T13:58:39.437Z,92887.03
2023-03-06T14:02:11.258Z,92895.88
2023-03-06T14:05:17.582Z,92889.13
2023-03-06T14:08:31.435Z,92885.91
2023-03-06T14:11:36.568Z,92882.59
2023-03-06T14:15:05.443Z,92885.50
2023-03-06T14:18:15.537Z,92881.94
2023-03-06T14:21:33.009Z,92888.53
2023-03-06T14:24:41.668Z,92891.84
2023-03-06T14:27:49.907Z,92893.59
2023-03-06T14:30:55.165Z,92878.75
2023-03-06T14:34:00.948Z,92882.47
2023-03-06T14:37:06.164Z,92878.91
2023-03-06T14:40:14.769Z,92876.41
2023-03-06T14:43:24.019Z,92884.38
2023-03-06T14:46:27.509Z,92884.31
2023-03-06T14:49:31.139Z,92880.38
2023-03-06T14:52:35.399Z,92887.34
2023-03-06T14:55:38.478Z,92897.16
2023-03-06T14:58:55.615Z,92896.44
2023-03-06T15:02:04.005Z,92897.53
2023-03-06T15:05:16.291Z,92900.75
2023-03-06T15:08:25.972Z,92889.41
2023-03-06T15:12:11.239Z,92891.09
2023-03-06T15:15:14.945Z,92892.63
2023-03-06T15:18:58.065Z,92896.31
2023-03-06T15:22:01.796Z,92895.06
2023-03-06T15:25:23.761Z,92892.56
2023-03-06T15:28:40.038Z,92895.41
2023-03-06T15:31:45.960Z,92896.25
2023-03-06T15:35:25.068Z,92892.97
2023-03-06T15:38:44.299Z,92892.56
2023-03-06T15:41:48.664Z,92897.25
2023-03-06T15:44:54.740Z,92901.50
2023-03-06T15:47:57.700Z,92897.16
2023-03-06T15:51:01.484Z,92897.97
2023-03-06T15:54:11.874Z,92895.50
2023-03-06T15:57:25.330Z,92900.59
2023-03-06T16:00:33.034Z,92893.72
2023-03-06T16:03:37.046Z,92901.69
2023-03-06T16:06:40.887Z,92883.84
2023-03-06T16:09:45.287Z,92890.34
2023-03-06T16:12:52.140Z,92885.25
2023-03-06T16:15:55.698Z,92888.84
2023-03-06T16:18:58.759Z,92888.50
2023-03-06T16:22:02.296Z,92878.44
2023-03-06T16:25:05.674Z,92873.06
2023-03-06T16:28:17.304Z,92877.75
2023-03-06T16:31:21.228Z,92878.81
2023-03-06T16:34:25.625Z,92886.50
2023-03-06T16:37:29.485Z,92881.44
2023-03-06T16:40:41.946Z,92882.16
2023-03-06T16:43:45.798Z,92882.19
2023-03-06T16:46:51.257Z,92889.44
2023-03-06T16:49:58.507Z,92888.72
2023-03-06T16:53:02.600Z,92898.16
2023-03-06T16:56:06.986Z,92892.75
2023-03-06T16:59:11.708Z,92896.06
2023-03-06T17:02:15.428Z,92899.75
2023-03-06T17:05:20.294Z,92910.63
2023-03-06T17:08:23.234Z,92908.09
2023-03-06T17:11:27.923Z,92913.53
2023-03-06T17:14:34.434Z,92923.69
2023-03-06T17:17:39.118Z,92921.91
2023-03-06T17:20:51.896Z,92924.78
2023-03-06T17:23:55.586Z,92927.31
2023-03-06T17:26:59.206Z,92932.03
2023-03-06T17:30:03.765Z,92924.41
2023-03-06T17:33:07.471Z,92929.88
2023-03-06T17:36:12.050Z,92936.38
2023-03-06T17:39:16.714Z,92940.38
2023-03-06T17:42:20.842Z,92942.56
2023-03-06T17:45:24.816Z,92952.31
2023-03-06T17:48:28.700Z,92957.75
2023-03-06T17:51:32.323Z,92962.47
2023-03-06T17:54:36.860Z,92961.41
2023-03-06T17:57:40.295Z,92964.66
2023-03-06T18:00:44.730Z,92967.53
2023-03-06T18:03:50.625Z,92966.81
2023-03-06T18:06:54.660Z,92972.22
2023-03-06T18:09:57.575Z,92973.72
2023-03-06T18:13:01.025Z,92977.69
2023-03-06T18:16:06.285Z,92983.13
2023-03-06T18:19:12.405Z,92986.34
2023-03-06T18:22:15.372Z,92980.22
2023-03-06T18:25:18.777Z,92980.22
2023-03-06T18:28:21.577Z,92972.97
2023-03-06T18:31:29.074Z,92976.56
2023-03-06T18:34:32.055Z,92982.38
2023-03-06T18:37:36.001Z,92988.50
2023-03-06T18:40:39.612Z,92991.00
2023-03-06T18:43:43.718Z,92996.47
2023-03-06T18:46:47.313Z,92999.72
2023-03-06T18:49:50.573Z,93001.53
2023-03-06T18:52:53.677Z,93002.94
2023-03-06T18:55:57.015Z,93002.56
2023-03-06T18:59:07.927Z,93006.91
2023-03-06T19:02:13.306Z,93017.41
2023-03-06T19:05:17.815Z,93008.69
2023-03-06T19:08:20.961Z,93014.09
2023-03-06T19:11:23.928Z,93019.88
2023-03-06T19:14:29.316Z,93018.06
2023-03-06T19:17:33.061Z,93020.91
2023-03-06T19:20:36.327Z,93030.63
2023-03-06T19:23:40.018Z,93029.16
2023-03-06T19:26:44.219Z,93026.91
2023-03-06T19:29:47.233Z,93038.44
2023-03-06T19:32:50.996Z,93038.41
2023-03-06T19:35:54.935Z,93033.34
2023-03-06T19:39:00.228Z,93043.44
2023-03-06T19:42:05.510Z,93056.03
2023-03-06T19:45:09.723Z,93063.94
2023-03-06T19:48:13.451Z,93061.41
2023-03-06T19:51:17.161Z,93069.38
2023-03-06T19:54:24.156Z,93076.97
2023-03-06T19:57:27.688Z,93076.59
2023-03-06T20:00:32.484Z,93079.84
2023-03-06T20:03:36.345Z,93076.19
2023-03-06T20:06:39.869Z,93080.91
2023-03-06T20:09:42.909Z,93076.63
2023-03-06T20:12:47.015Z,93085.75
2023-03-06T20:15:50.007Z,93081.03
2023-03-06T20:18:53.709Z,93084.00
2023-03-06T20:21:57.426Z,93092.31
2023-03-06T20:25:01.320Z,93094.13
2023-03-06T20:28:05.981Z,93098.44
2023-03-06T20:31:18.105Z,93104.94
2023-03-06T20:34:21.482Z,93104.16
2023-03-06T20:37:25.348Z,93119.97
2023-03-06T20:40:29.101Z,93121.75
2023-03-06T20:43:32.372Z,93129.72
2023-03-06T20:46:36.471Z,93121.53
2023-03-06T20:49:40.400Z,93136.84
2023-03-06T20:52:44.047Z,93141.22
2023-03-06T20:55:49.960Z,93147.75
2023-03-06T20:58:54.452Z,93143.75
2023-03-06T21:01:58.625Z,93152.75
2023-03-06T21:05:02.392Z,93159.47
2023-03-06T21:08:06.689Z,93173.41
2023-03-06T21:11:10.691Z,93175.47
2023-03-06T21:14:15.164Z,93182.97
2023-03-06T21:17:18.517Z,93194.09
2023-03-06T21:20:21.936Z,93199.59
2023-03-06T21:23:25.651Z,93208.09
2023-03-06T21:26:34.515Z,93211.88
2023-03-06T21:29:38.078Z,93223.13
2023-03-06T21:32:41.793Z,93226.72
2023-03-06T21:35:46.136Z,93232.81
2023-03-06T21:38:51.838Z,93232.03
2023-03-06T21:41:55.521Z,93244.34
2023-03-06T21:44:58.830Z,93246.91
2023-03-06T21:48:01.752Z,93243.00
2023-03-06T21:51:14.431Z,93254.00
2023-03-06T21:54:17.278Z,93253.31
2023-03-06T21:57:20.619Z,93256.53
2023-03-06T22:00:26.547Z,93271.03
2023-03-06T22:03:30.630Z,93272.66
2023-03-06T22:06:34.202Z,93277.09
2023-03-06T22:09:38.310Z,93293.84
2023-03-06T22:12:42.364Z,93291.34
2023-03-06T22:15:54.116Z,93294.19
2023-03-06T22:18:57.862Z,93298.41
2023-03-06T22:22:01.222Z,93304.53
2023-03-06T22:25:05.678Z,93302.03
2023-03-06T22:28:09.750Z,93302.44
2023-03-06T22:31:18.327Z,93317.19
2023-03-06T22:34:21.508Z,93315.00
2023-03-06T22:37:24.302Z,93320.72
2023-03-06T22:40:28.229Z,93332.28
2023-03-06T22:43:33.347Z,93328.28
2023-03-06T22:46:37.340Z,93333.78
2023-03-06T22:49:40.951Z,93344.69
2023-03-06T22:52:45.037Z,93347.97
2023-03-06T22:55:48.634Z,93354.97
2023-03-06T22:58:52.978Z,93363.75
2023-03-06T23:01:56.461Z,93358.66
2023-03-06T23:05:00.476Z,93359.41
2023-03-06T23:08:04.143Z,93361.63
2023-03-06T23:11:16.383Z,93367.50
2023-03-06T23:14:37.676Z,93375.34
2023-03-06T23:18:00.212Z,93383.34
2023-03-06T23:21:23.466Z,93395.66
2023-03-06T23:24:46.095Z,93389.47
2023-03-06T23:27:49.772Z,93402.88
2023-03-06T23:30:54.112Z,93401.47
2023-03-06T23:33:59.330Z,93413.84
2023-03-06T23:37:03.260Z,93414.56
2023-03-06T23:40:09.833Z,93413.75
2023-03-06T23:43:12.823Z,93410.50
2023-03-06T23:46:16.832Z,93424.38
2023-03-06T23:49:21.962Z,93426.31
2023-03-06T23:52:25.872Z,93435.78
2023-03-06T23:55:29.528Z,93437.59
2023-03-06T23:58:32.830Z,93438.78
